sensor_id;sensor_type;location;lat;lon;timestamp;P1;durP1;ratioP1;P2;durP2;ratioP2
60241;SDS011;46103;52.076;113.488;2023-02-01T00:03:00;21.73;;;9.75;;
60241;SDS011;46103;52.076;113.488;2023-02-01T00:06:04;15.77;;;9.23;;
60241;SDS011;46103;52.076;113.488;2023-02-01T00:09:08;31.60;;;13.77;;
60241;SDS011;46103;52.076;113.488;2023-02-01T00:12:12;42.35;;;14.73;;
60241;SDS011;46103;52.076;113.488;2023-02-01T00:15:15;22.70;;;11.40;;
60241;SDS011;46103;52.076;113.488;2023-02-01T00:18:18;30.95;;;13.43;;
60241;SDS011;46103;52.076;113.488;2023-02-01T00:21:22;37.47;;;15.20;;
60241;SDS011;46103;52.076;113.488;2023-02-01T00:24:26;28.65;;;11.82;;
60241;SDS011;46103;52.076;113.488;2023-02-01T00:27:30;17.67;;;12.90;;
60241;SDS011;46103;52.076;113.488;2023-02-01T00:30:34;23.80;;;10.65;;
60241;SDS011;46103;52.076;113.488;2023-02-01T00:33:38;36.88;;;14.80;;
60241;SDS011;46103;52.076;113.488;2023-02-01T00:36:41;24.83;;;9.27;;
60241;SDS011;46103;52.076;113.488;2023-02-01T00:39:48;14.45;;;7.00;;
60241;SDS011;46103;52.076;113.488;2023-02-01T00:42:55;14.85;;;6.88;;
60241;SDS011;46103;52.076;113.488;2023-02-01T00:46:00;9.18;;;4.45;;
60241;SDS011;46103;52.076;113.488;2023-02-01T00:49:09;25.25;;;9.30;;
60241;SDS011;46103;52.076;113.488;2023-02-01T00:52:16;21.70;;;10.00;;
60241;SDS011;46103;52.076;113.488;2023-02-01T00:55:20;14.85;;;9.75;;
60241;SDS011;46103;52.076;113.488;2023-02-01T00:58:24;18.33;;;8.45;;
60241;SDS011;46103;52.076;113.488;2023-02-01T01:01:28;15.90;;;9.85;;
60241;SDS011;46103;52.076;113.488;2023-02-01T01:04:32;29.83;;;11.50;;
60241;SDS011;46103;52.076;113.488;2023-02-01T01:07:36;25.85;;;10.85;;
60241;SDS011;46103;52.076;113.488;2023-02-01T01:10:40;23.25;;;10.85;;
60241;SDS011;46103;52.076;113.488;2023-02-01T01:13:48;22.42;;;11.23;;
60241;SDS011;46103;52.076;113.488;2023-02-01T01:16:53;22.15;;;9.23;;
60241;SDS011;46103;52.076;113.488;2023-02-01T01:19:56;20.42;;;10.27;;
60241;SDS011;46103;52.076;113.488;2023-02-01T01:23:01;20.90;;;10.40;;
60241;SDS011;46103;52.076;113.488;2023-02-01T01:26:06;9.68;;;7.40;;
60241;SDS011;46103;52.076;113.488;2023-02-01T01:29:11;23.38;;;10.98;;
60241;SDS011;46103;52.076;113.488;2023-02-01T01:32:16;24.90;;;11.40;;
60241;SDS011;46103;52.076;113.488;2023-02-01T01:35:18;27.02;;;12.45;;
60241;SDS011;46103;52.076;113.488;2023-02-01T01:38:25;34.80;;;13.57;;
60241;SDS011;46103;52.076;113.488;2023-02-01T01:41:29;31.55;;;13.27;;
60241;SDS011;46103;52.076;113.488;2023-02-01T01:45:02;35.72;;;12.50;;
60241;SDS011;46103;52.076;113.488;2023-02-01T01:51:22;29.60;;;13.07;;
60241;SDS011;46103;52.076;113.488;2023-02-01T01:54:29;20.40;;;8.63;;
60241;SDS011;46103;52.076;113.488;2023-02-01T01:57:38;14.63;;;5.88;;
60241;SDS011;46103;52.076;113.488;2023-02-01T02:00:47;26.05;;;10.60;;
60241;SDS011;46103;52.076;113.488;2023-02-01T02:03:51;28.77;;;10.38;;
60241;SDS011;46103;52.076;113.488;2023-02-01T02:10:30;25.80;;;11.00;;
60241;SDS011;46103;52.076;113.488;2023-02-01T02:13:53;42.90;;;18.40;;
60241;SDS011;46103;52.076;113.488;2023-02-01T03:09:47;15.90;;;7.18;;
60241;SDS011;46103;52.076;113.488;2023-02-01T03:12:52;14.55;;;9.18;;
60241;SDS011;46103;52.076;113.488;2023-02-01T03:19:09;29.17;;;12.63;;
60241;SDS011;46103;52.076;113.488;2023-02-01T03:22:23;28.63;;;11.35;;
60241;SDS011;46103;52.076;113.488;2023-02-01T03:25:30;35.25;;;14.93;;
60241;SDS011;46103;52.076;113.488;2023-02-01T03:28:38;34.50;;;11.32;;
60241;SDS011;46103;52.076;113.488;2023-02-01T03:31:51;36.08;;;13.68;;
60241;SDS011;46103;52.076;113.488;2023-02-01T03:34:55;17.27;;;6.10;;
60241;SDS011;46103;52.076;113.488;2023-02-01T03:38:21;21.25;;;9.35;;
60241;SDS011;46103;52.076;113.488;2023-02-01T03:41:34;23.23;;;7.22;;
60241;SDS011;46103;52.076;113.488;2023-02-01T03:44:41;18.85;;;6.10;;
60241;SDS011;46103;52.076;113.488;2023-02-01T03:47:54;15.75;;;5.82;;
60241;SDS011;46103;52.076;113.488;2023-02-01T03:51:03;10.18;;;4.85;;
60241;SDS011;46103;52.076;113.488;2023-02-01T03:54:11;10.90;;;4.78;;
60241;SDS011;46103;52.076;113.488;2023-02-01T03:57:19;8.68;;;4.80;;
60241;SDS011;46103;52.076;113.488;2023-02-01T04:00:34;13.75;;;4.30;;
60241;SDS011;46103;52.076;113.488;2023-02-01T04:03:39;16.45;;;5.35;;
60241;SDS011;46103;52.076;113.488;2023-02-01T04:06:46;9.52;;;4.18;;
60241;SDS011;46103;52.076;113.488;2023-02-01T04:09:51;10.40;;;4.53;;
60241;SDS011;46103;52.076;113.488;2023-02-01T04:12:57;7.80;;;3.77;;
60241;SDS011;46103;52.076;113.488;2023-02-01T04:16:01;9.02;;;4.78;;
60241;SDS011;46103;52.076;113.488;2023-02-01T04:19:05;15.77;;;5.75;;
60241;SDS011;46103;52.076;113.488;2023-02-01T04:22:12;13.27;;;7.07;;
60241;SDS011;46103;52.076;113.488;2023-02-01T04:25:14;6.40;;;3.45;;
60241;SDS011;46103;52.076;113.488;2023-02-01T04:28:20;17.63;;;5.45;;
60241;SDS011;46103;52.076;113.488;2023-02-01T04:31:23;7.90;;;4.22;;
60241;SDS011;46103;52.076;113.488;2023-02-01T04:34:32;12.40;;;4.28;;
60241;SDS011;46103;52.076;113.488;2023-02-01T04:37:36;16.17;;;5.07;;
60241;SDS011;46103;52.076;113.488;2023-02-01T04:40:39;15.35;;;5.10;;
60241;SDS011;46103;52.076;113.488;2023-02-01T04:43:43;7.45;;;4.15;;
60241;SDS011;46103;52.076;113.488;2023-02-01T04:46:47;11.50;;;4.55;;
60241;SDS011;46103;52.076;113.488;2023-02-01T04:49:50;6.97;;;3.50;;
60241;SDS011;46103;52.076;113.488;2023-02-01T04:52:54;7.47;;;3.40;;
60241;SDS011;46103;52.076;113.488;2023-02-01T04:55:57;15.05;;;5.10;;
60241;SDS011;46103;52.076;113.488;2023-02-01T04:59:04;5.13;;;3.05;;
60241;SDS011;46103;52.076;113.488;2023-02-01T05:02:08;10.88;;;4.78;;
60241;SDS011;46103;52.076;113.488;2023-02-01T05:05:12;11.00;;;4.50;;
60241;SDS011;46103;52.076;113.488;2023-02-01T05:08:15;19.35;;;5.13;;
60241;SDS011;46103;52.076;113.488;2023-02-01T05:11:19;11.75;;;4.47;;
60241;SDS011;46103;52.076;113.488;2023-02-01T05:14:48;10.15;;;4.50;;
60241;SDS011;46103;52.076;113.488;2023-02-01T05:17:52;10.43;;;3.50;;
60241;SDS011;46103;52.076;113.488;2023-02-01T05:20:55;12.00;;;4.75;;
60241;SDS011;46103;52.076;113.488;2023-02-01T05:24:00;7.43;;;3.08;;
60241;SDS011;46103;52.076;113.488;2023-02-01T05:27:12;10.52;;;4.32;;
60241;SDS011;46103;52.076;113.488;2023-02-01T05:30:16;15.48;;;5.78;;
60241;SDS011;46103;52.076;113.488;2023-02-01T05:33:20;13.23;;;4.90;;
60241;SDS011;46103;52.076;113.488;2023-02-01T05:36:24;17.15;;;5.63;;
60241;SDS011;46103;52.076;113.488;2023-02-01T05:39:28;21.77;;;6.63;;
60241;SDS011;46103;52.076;113.488;2023-02-01T05:42:32;12.48;;;4.95;;
60241;SDS011;46103;52.076;113.488;2023-02-01T05:45:39;19.38;;;5.57;;
60241;SDS011;46103;52.076;113.488;2023-02-01T05:48:43;17.80;;;5.82;;
60241;SDS011;46103;52.076;113.488;2023-02-01T05:51:46;14.25;;;4.18;;
60241;SDS011;46103;52.076;113.488;2023-02-01T05:54:50;12.00;;;4.03;;
60241;SDS011;46103;52.076;113.488;2023-02-01T05:57:55;17.85;;;4.25;;
60241;SDS011;46103;52.076;113.488;2023-02-01T06:00:59;14.10;;;4.05;;
60241;SDS011;46103;52.076;113.488;2023-02-01T06:04:04;8.55;;;4.25;;
60241;SDS011;46103;52.076;113.488;2023-02-01T06:07:08;9.25;;;3.30;;
60241;SDS011;46103;52.076;113.488;2023-02-01T06:10:12;10.60;;;3.58;;
60241;SDS011;46103;52.076;113.488;2023-02-01T06:13:16;12.50;;;4.38;;
60241;SDS011;46103;52.076;113.488;2023-02-01T06:16:20;10.15;;;4.45;;
60241;SDS011;46103;52.076;113.488;2023-02-01T06:19:24;9.05;;;4.00;;
60241;SDS011;46103;52.076;113.488;2023-02-01T06:22:29;7.70;;;3.30;;
60241;SDS011;46103;52.076;113.488;2023-02-01T06:25:32;8.63;;;3.60;;
60241;SDS011;46103;52.076;113.488;2023-02-01T06:28:36;8.77;;;3.78;;
60241;SDS011;46103;52.076;113.488;2023-02-01T06:31:41;9.85;;;3.70;;
60241;SDS011;46103;52.076;113.488;2023-02-01T06:34:45;10.02;;;4.25;;
60241;SDS011;46103;52.076;113.488;2023-02-01T06:37:48;11.57;;;3.35;;
60241;SDS011;46103;52.076;113.488;2023-02-01T06:40:55;9.77;;;3.28;;
60241;SDS011;46103;52.076;113.488;2023-02-01T06:44:00;8.90;;;3.08;;
60241;SDS011;46103;52.076;113.488;2023-02-01T06:47:04;15.13;;;4.10;;
60241;SDS011;46103;52.076;113.488;2023-02-01T06:50:10;7.82;;;3.70;;
60241;SDS011;46103;52.076;113.488;2023-02-01T06:53:14;7.20;;;2.67;;
60241;SDS011;46103;52.076;113.488;2023-02-01T06:56:18;6.63;;;2.92;;
60241;SDS011;46103;52.076;113.488;2023-02-01T06:59:23;6.93;;;2.70;;
60241;SDS011;46103;52.076;113.488;2023-02-01T07:02:26;6.90;;;2.95;;
60241;SDS011;46103;52.076;113.488;2023-02-01T07:05:30;6.53;;;3.05;;
60241;SDS011;46103;52.076;113.488;2023-02-01T07:08:34;7.38;;;4.13;;
60241;SDS011;46103;52.076;113.488;2023-02-01T07:11:39;2.25;;;1.45;;
60241;SDS011;46103;52.076;113.488;2023-02-01T07:14:46;8.02;;;2.83;;
60241;SDS011;46103;52.076;113.488;2023-02-01T07:17:50;10.40;;;3.53;;
60241;SDS011;46103;52.076;113.488;2023-02-01T07:20:54;5.28;;;2.75;;
60241;SDS011;46103;52.076;113.488;2023-02-01T07:23:58;10.50;;;3.53;;
60241;SDS011;46103;52.076;113.488;2023-02-01T07:27:02;4.47;;;2.30;;
60241;SDS011;46103;52.076;113.488;2023-02-01T07:30:06;8.38;;;3.20;;
60241;SDS011;46103;52.076;113.488;2023-02-01T07:33:10;13.70;;;4.45;;
60241;SDS011;46103;52.076;113.488;2023-02-01T07:36:15;5.57;;;2.67;;
60241;SDS011;46103;52.076;113.488;2023-02-01T07:39:19;14.85;;;4.82;;
60241;SDS011;46103;52.076;113.488;2023-02-01T07:42:23;19.35;;;5.63;;
60241;SDS011;46103;52.076;113.488;2023-02-01T07:45:26;9.95;;;3.65;;
60241;SDS011;46103;52.076;113.488;2023-02-01T07:48:30;13.25;;;6.18;;
60241;SDS011;46103;52.076;113.488;2023-02-01T07:51:36;17.90;;;7.03;;
60241;SDS011;46103;52.076;113.488;2023-02-01T07:54:39;16.15;;;5.95;;
60241;SDS011;46103;52.076;113.488;2023-02-01T07:57:43;19.00;;;5.75;;
60241;SDS011;46103;52.076;113.488;2023-02-01T08:00:46;18.75;;;6.07;;
60241;SDS011;46103;52.076;113.488;2023-02-01T08:04:12;20.60;;;6.88;;
60241;SDS011;46103;52.076;113.488;2023-02-01T08:07:16;10.25;;;3.80;;
60241;SDS011;46103;52.076;113.488;2023-02-01T08:10:20;21.33;;;6.13;;
60241;SDS011;46103;52.076;113.488;2023-02-01T08:13:24;18.60;;;7.57;;
60241;SDS011;46103;52.076;113.488;2023-02-01T08:16:28;26.73;;;9.27;;
60241;SDS011;46103;52.076;113.488;2023-02-01T08:19:32;28.50;;;9.25;;
60241;SDS011;46103;52.076;113.488;2023-02-01T08:22:36;19.60;;;7.53;;
60241;SDS011;46103;52.076;113.488;2023-02-01T08:25:39;25.90;;;8.60;;
60241;SDS011;46103;52.076;113.488;2023-02-01T08:28:44;26.52;;;8.05;;
60241;SDS011;46103;52.076;113.488;2023-02-01T08:31:54;40.75;;;12.10;;
60241;SDS011;46103;52.076;113.488;2023-02-01T08:34:58;18.45;;;7.28;;
60241;SDS011;46103;52.076;113.488;2023-02-01T08:38:02;25.70;;;8.63;;
60241;SDS011;46103;52.076;113.488;2023-02-01T08:41:07;29.95;;;11.52;;
60241;SDS011;46103;52.076;113.488;2023-02-01T08:44:15;32.33;;;9.35;;
60241;SDS011;46103;52.076;113.488;2023-02-01T08:47:18;46.47;;;13.43;;
60241;SDS011;46103;52.076;113.488;2023-02-01T08:50:22;33.42;;;11.90;;
60241;SDS011;46103;52.076;113.488;2023-02-01T08:53:27;40.30;;;12.23;;
60241;SDS011;46103;52.076;113.488;2023-02-01T08:56:31;40.38;;;15.00;;
60241;SDS011;46103;52.076;113.488;2023-02-01T08:59:34;51.60;;;16.52;;
60241;SDS011;46103;52.076;113.488;2023-02-01T09:02:39;62.80;;;20.35;;
60241;SDS011;46103;52.076;113.488;2023-02-01T09:05:42;31.95;;;13.95;;
60241;SDS011;46103;52.076;113.488;2023-02-01T09:08:53;24.38;;;10.00;;
60241;SDS011;46103;52.076;113.488;2023-02-01T09:12:38;30.63;;;11.45;;
60241;SDS011;46103;52.076;113.488;2023-02-01T09:15:42;22.60;;;9.35;;
60241;SDS011;46103;52.076;113.488;2023-02-01T09:18:45;23.08;;;10.80;;
60241;SDS011;46103;52.076;113.488;2023-02-01T09:22:10;22.30;;;10.23;;
60241;SDS011;46103;52.076;113.488;2023-02-01T09:25:13;22.35;;;8.68;;
60241;SDS011;46103;52.076;113.488;2023-02-01T09:28:17;38.40;;;13.85;;
60241;SDS011;46103;52.076;113.488;2023-02-01T09:31:21;54.35;;;16.98;;
60241;SDS011;46103;52.076;113.488;2023-02-01T09:34:25;42.33;;;15.77;;
60241;SDS011;46103;52.076;113.488;2023-02-01T09:37:28;36.80;;;12.27;;
60241;SDS011;46103;52.076;113.488;2023-02-01T09:40:33;29.05;;;12.52;;
60241;SDS011;46103;52.076;113.488;2023-02-01T09:43:41;49.47;;;13.10;;
60241;SDS011;46103;52.076;113.488;2023-02-01T09:46:59;32.15;;;11.43;;
60241;SDS011;46103;52.076;113.488;2023-02-01T09:53:14;70.03;;;24.58;;
60241;SDS011;46103;52.076;113.488;2023-02-01T09:56:36;104.40;;;31.90;;
60241;SDS011;46103;52.076;113.488;2023-02-01T10:00:04;85.47;;;28.13;;
60241;SDS011;46103;52.076;113.488;2023-02-01T10:03:18;73.45;;;24.13;;
60241;SDS011;46103;52.076;113.488;2023-02-01T10:06:41;52.08;;;18.52;;
60241;SDS011;46103;52.076;113.488;2023-02-01T10:16:57;65.00;;;18.45;;
60241;SDS011;46103;52.076;113.488;2023-02-01T10:27:43;44.78;;;15.23;;
60241;SDS011;46103;52.076;113.488;2023-02-01T10:30:47;46.92;;;16.52;;
60241;SDS011;46103;52.076;113.488;2023-02-01T10:34:03;41.47;;;15.15;;
60241;SDS011;46103;52.076;113.488;2023-02-01T10:37:31;24.05;;;8.93;;
60241;SDS011;46103;52.076;113.488;2023-02-01T10:40:36;27.85;;;9.20;;
60241;SDS011;46103;52.076;113.488;2023-02-01T10:43:41;27.83;;;10.05;;
60241;SDS011;46103;52.076;113.488;2023-02-01T10:46:46;31.38;;;10.85;;
60241;SDS011;46103;52.076;113.488;2023-02-01T10:50:11;34.15;;;11.13;;
60241;SDS011;46103;52.076;113.488;2023-02-01T10:53:41;28.88;;;11.10;;
60241;SDS011;46103;52.076;113.488;2023-02-01T10:57:23;24.52;;;10.50;;
60241;SDS011;46103;52.076;113.488;2023-02-01T11:00:37;31.48;;;11.88;;
60241;SDS011;46103;52.076;113.488;2023-02-01T11:03:58;29.50;;;12.57;;
60241;SDS011;46103;52.076;113.488;2023-02-01T11:07:07;40.25;;;15.82;;
60241;SDS011;46103;52.076;113.488;2023-02-01T11:13:43;76.03;;;28.48;;
60241;SDS011;46103;52.076;113.488;2023-02-01T11:17:33;100.50;;;34.22;;
60241;SDS011;46103;52.076;113.488;2023-02-01T11:23:35;85.95;;;32.28;;
60241;SDS011;46103;52.076;113.488;2023-02-01T11:26:44;76.85;;;27.75;;
60241;SDS011;46103;52.076;113.488;2023-02-01T11:29:50;88.90;;;31.85;;
60241;SDS011;46103;52.076;113.488;2023-02-01T11:32:56;86.18;;;28.23;;
60241;SDS011;46103;52.076;113.488;2023-02-01T11:36:01;82.28;;;28.10;;
60241;SDS011;46103;52.076;113.488;2023-02-01T11:39:26;79.78;;;25.15;;
60241;SDS011;46103;52.076;113.488;2023-02-01T11:42:32;52.85;;;19.48;;
60241;SDS011;46103;52.076;113.488;2023-02-01T11:45:37;63.50;;;22.25;;
60241;SDS011;46103;52.076;113.488;2023-02-01T11:48:41;70.20;;;22.20;;
60241;SDS011;46103;52.076;113.488;2023-02-01T11:51:49;52.22;;;19.58;;
60241;SDS011;46103;52.076;113.488;2023-02-01T11:55:17;55.40;;;21.77;;
60241;SDS011;46103;52.076;113.488;2023-02-01T11:58:58;57.42;;;21.95;;
60241;SDS011;46103;52.076;113.488;2023-02-01T12:02:36;88.85;;;28.73;;
60241;SDS011;46103;52.076;113.488;2023-02-01T12:12:51;112.70;;;36.90;;
60241;SDS011;46103;52.076;113.488;2023-02-01T12:25:44;121.25;;;41.55;;
60241;SDS011;46103;52.076;113.488;2023-02-01T12:38:51;156.55;;;50.15;;
60241;SDS011;46103;52.076;113.488;2023-02-01T12:45:26;144.77;;;43.83;;
60241;SDS011;46103;52.076;113.488;2023-02-01T12:48:56;86.20;;;30.80;;
60241;SDS011;46103;52.076;113.488;2023-02-01T12:52:14;103.47;;;33.90;;
60241;SDS011;46103;52.076;113.488;2023-02-01T12:55:36;85.53;;;29.63;;
60241;SDS011;46103;52.076;113.488;2023-02-01T12:58:46;72.00;;;27.92;;
60241;SDS011;46103;52.076;113.488;2023-02-01T13:01:56;103.53;;;33.15;;
60241;SDS011;46103;52.076;113.488;2023-02-01T13:05:20;92.90;;;30.60;;
60241;SDS011;46103;52.076;113.488;2023-02-01T13:11:55;88.07;;;29.65;;
60241;SDS011;46103;52.076;113.488;2023-02-01T13:15:11;91.15;;;29.92;;
60241;SDS011;46103;52.076;113.488;2023-02-01T13:18:43;69.35;;;24.98;;
60241;SDS011;46103;52.076;113.488;2023-02-01T13:21:59;54.08;;;22.40;;
60241;SDS011;46103;52.076;113.488;2023-02-01T13:25:12;71.43;;;25.80;;
60241;SDS011;46103;52.076;113.488;2023-02-01T13:35:22;91.22;;;31.63;;
60241;SDS011;46103;52.076;113.488;2023-02-01T13:42:13;107.80;;;35.50;;
60241;SDS011;46103;52.076;113.488;2023-02-01T13:45:24;126.78;;;39.95;;
60241;SDS011;46103;52.076;113.488;2023-02-01T13:51:55;104.95;;;35.28;;
60241;SDS011;46103;52.076;113.488;2023-02-01T13:55:03;69.00;;;26.55;;
60241;SDS011;46103;52.076;113.488;2023-02-01T13:58:31;37.15;;;11.95;;
60241;SDS011;46103;52.076;113.488;2023-02-01T14:01:38;35.42;;;13.35;;
60241;SDS011;46103;52.076;113.488;2023-02-01T14:04:46;36.33;;;14.00;;
60241;SDS011;46103;52.076;113.488;2023-02-01T14:11:31;37.95;;;14.70;;
60241;SDS011;46103;52.076;113.488;2023-02-01T14:14:50;30.95;;;11.82;;
60241;SDS011;46103;52.076;113.488;2023-02-01T14:17:54;46.13;;;17.83;;
60241;SDS011;46103;52.076;113.488;2023-02-01T14:21:12;55.58;;;19.83;;
60241;SDS011;46103;52.076;113.488;2023-02-01T14:27:34;64.50;;;20.45;;
60241;SDS011;46103;52.076;113.488;2023-02-01T14:30:40;51.08;;;17.30;;
60241;SDS011;46103;52.076;113.488;2023-02-01T14:33:46;51.42;;;19.55;;
60241;SDS011;46103;52.076;113.488;2023-02-01T14:36:55;59.22;;;20.88;;
60241;SDS011;46103;52.076;113.488;2023-02-01T14:40:01;72.00;;;22.02;;
60241;SDS011;46103;52.076;113.488;2023-02-01T14:43:17;44.00;;;16.05;;
60241;SDS011;46103;52.076;113.488;2023-02-01T14:53:34;55.20;;;17.75;;
60241;SDS011;46103;52.076;113.488;2023-02-01T14:56:39;43.30;;;16.70;;
60241;SDS011;46103;52.076;113.488;2023-02-01T14:59:44;41.35;;;16.30;;
60241;SDS011;46103;52.076;113.488;2023-02-01T15:02:50;39.80;;;17.02;;
60241;SDS011;46103;52.076;113.488;2023-02-01T15:05:56;48.65;;;19.65;;
60241;SDS011;46103;52.076;113.488;2023-02-01T15:09:24;75.20;;;23.77;;
60241;SDS011;46103;52.076;113.488;2023-02-01T15:12:28;100.78;;;28.73;;
60241;SDS011;46103;52.076;113.488;2023-02-01T15:15:34;80.70;;;29.23;;
60241;SDS011;46103;52.076;113.488;2023-02-01T15:18:38;50.70;;;18.42;;
60241;SDS011;46103;52.076;113.488;2023-02-01T15:21:47;61.15;;;22.08;;
60241;SDS011;46103;52.076;113.488;2023-02-01T15:24:53;140.57;;;45.70;;
60241;SDS011;46103;52.076;113.488;2023-02-01T15:28:01;208.70;;;59.63;;
60241;SDS011;46103;52.076;113.488;2023-02-01T15:31:05;188.55;;;59.33;;
60241;SDS011;46103;52.076;113.488;2023-02-01T15:34:09;188.02;;;60.03;;
60241;SDS011;46103;52.076;113.488;2023-02-01T15:37:13;107.03;;;36.42;;
60241;SDS011;46103;52.076;113.488;2023-02-01T15:40:23;140.77;;;44.03;;
60241;SDS011;46103;52.076;113.488;2023-02-01T15:43:27;143.82;;;44.72;;
60241;SDS011;46103;52.076;113.488;2023-02-01T15:46:39;117.70;;;40.33;;
60241;SDS011;46103;52.076;113.488;2023-02-01T15:49:50;96.32;;;34.70;;
60241;SDS011;46103;52.076;113.488;2023-02-01T15:52:59;38.72;;;15.50;;
60241;SDS011;46103;52.076;113.488;2023-02-01T15:56:03;27.05;;;13.13;;
60241;SDS011;46103;52.076;113.488;2023-02-01T15:59:15;49.35;;;14.80;;
60241;SDS011;46103;52.076;113.488;2023-02-01T16:02:29;56.40;;;22.48;;
60241;SDS011;46103;52.076;113.488;2023-02-01T16:05:40;73.97;;;27.38;;
60241;SDS011;46103;52.076;113.488;2023-02-01T16:08:51;78.38;;;26.85;;
60241;SDS011;46103;52.076;113.488;2023-02-01T16:11:59;121.05;;;42.17;;
60241;SDS011;46103;52.076;113.488;2023-02-01T16:15:04;370.95;;;117.25;;
60241;SDS011;46103;52.076;113.488;2023-02-01T16:18:08;169.57;;;50.17;;
60241;SDS011;46103;52.076;113.488;2023-02-01T16:21:12;225.05;;;63.20;;
60241;SDS011;46103;52.076;113.488;2023-02-01T16:24:16;87.22;;;38.60;;
60241;SDS011;46103;52.076;113.488;2023-02-01T16:27:19;166.63;;;47.13;;
60241;SDS011;46103;52.076;113.488;2023-02-01T16:30:24;179.13;;;56.75;;
60241;SDS011;46103;52.076;113.488;2023-02-01T16:33:28;229.90;;;75.18;;
60241;SDS011;46103;52.076;113.488;2023-02-01T16:36:31;169.85;;;57.03;;
60241;SDS011;46103;52.076;113.488;2023-02-01T16:39:35;150.65;;;49.17;;
60241;SDS011;46103;52.076;113.488;2023-02-01T16:42:38;107.18;;;40.70;;
60241;SDS011;46103;52.076;113.488;2023-02-01T16:45:43;122.13;;;39.78;;
60241;SDS011;46103;52.076;113.488;2023-02-01T16:48:55;119.10;;;40.40;;
60241;SDS011;46103;52.076;113.488;2023-02-01T16:52:01;60.95;;;31.25;;
60241;SDS011;46103;52.076;113.488;2023-02-01T16:55:22;83.55;;;31.08;;
60241;SDS011;46103;52.076;113.488;2023-02-01T16:58:26;82.85;;;27.23;;
60241;SDS011;46103;52.076;113.488;2023-02-01T17:01:29;80.97;;;37.03;;
60241;SDS011;46103;52.076;113.488;2023-02-01T17:04:33;103.90;;;35.17;;
60241;SDS011;46103;52.076;113.488;2023-02-01T17:07:38;61.20;;;25.92;;
60241;SDS011;46103;52.076;113.488;2023-02-01T17:10:42;168.80;;;52.63;;
60241;SDS011;46103;52.076;113.488;2023-02-01T17:13:46;254.00;;;85.82;;
60241;SDS011;46103;52.076;113.488;2023-02-01T17:16:49;292.10;;;97.35;;
60241;SDS011;46103;52.076;113.488;2023-02-01T17:19:53;318.27;;;97.05;;
60241;SDS011;46103;52.076;113.488;2023-02-01T17:22:56;245.63;;;82.20;;
60241;SDS011;46103;52.076;113.488;2023-02-01T17:25:59;161.73;;;52.42;;
60241;SDS011;46103;52.076;113.488;2023-02-01T17:29:05;137.95;;;45.65;;
60241;SDS011;46103;52.076;113.488;2023-02-01T17:32:29;94.57;;;37.42;;
60241;SDS011;46103;52.076;113.488;2023-02-01T17:35:31;95.60;;;37.75;;
60241;SDS011;46103;52.076;113.488;2023-02-01T17:38:34;89.30;;;35.08;;
60241;SDS011;46103;52.076;113.488;2023-02-01T17:41:38;99.85;;;36.08;;
60241;SDS011;46103;52.076;113.488;2023-02-01T17:44:41;99.75;;;35.67;;
60241;SDS011;46103;52.076;113.488;2023-02-01T17:47:45;95.45;;;34.30;;
60241;SDS011;46103;52.076;113.488;2023-02-01T17:50:50;102.93;;;33.58;;
60241;SDS011;46103;52.076;113.488;2023-02-01T17:53:59;107.63;;;38.17;;
60241;SDS011;46103;52.076;113.488;2023-02-01T17:57:04;101.00;;;37.88;;
60241;SDS011;46103;52.076;113.488;2023-02-01T18:00:16;97.63;;;36.35;;
60241;SDS011;46103;52.076;113.488;2023-02-01T18:03:22;81.13;;;31.20;;
60241;SDS011;46103;52.076;113.488;2023-02-01T18:06:33;74.70;;;26.95;;
60241;SDS011;46103;52.076;113.488;2023-02-01T18:09:39;100.68;;;35.45;;
60241;SDS011;46103;52.076;113.488;2023-02-01T18:12:44;126.97;;;39.15;;
60241;SDS011;46103;52.076;113.488;2023-02-01T18:15:48;106.40;;;46.08;;
60241;SDS011;46103;52.076;113.488;2023-02-01T18:18:51;139.65;;;50.75;;
60241;SDS011;46103;52.076;113.488;2023-02-01T18:21:55;136.43;;;52.47;;
60241;SDS011;46103;52.076;113.488;2023-02-01T18:25:00;129.95;;;41.15;;
60241;SDS011;46103;52.076;113.488;2023-02-01T18:28:03;165.52;;;48.88;;
60241;SDS011;46103;52.076;113.488;2023-02-01T18:31:15;162.45;;;55.30;;
60241;SDS011;46103;52.076;113.488;2023-02-01T18:34:25;178.90;;;61.53;;
60241;SDS011;46103;52.076;113.488;2023-02-01T18:37:29;185.23;;;59.65;;
60241;SDS011;46103;52.076;113.488;2023-02-01T18:40:47;175.40;;;64.90;;
60241;SDS011;46103;52.076;113.488;2023-02-01T18:44:00;115.55;;;40.13;;
60241;SDS011;46103;52.076;113.488;2023-02-01T18:47:04;129.60;;;49.60;;
60241;SDS011;46103;52.076;113.488;2023-02-01T18:50:08;98.15;;;34.80;;
60241;SDS011;46103;52.076;113.488;2023-02-01T18:53:12;98.40;;;34.90;;
60241;SDS011;46103;52.076;113.488;2023-02-01T18:56:22;90.22;;;28.08;;
60241;SDS011;46103;52.076;113.488;2023-02-01T18:59:25;132.38;;;50.97;;
60241;SDS011;46103;52.076;113.488;2023-02-01T19:02:29;164.55;;;55.13;;
60241;SDS011;46103;52.076;113.488;2023-02-01T19:05:33;122.25;;;44.67;;
60241;SDS011;46103;52.076;113.488;2023-02-01T19:08:37;124.07;;;41.92;;
60241;SDS011;46103;52.076;113.488;2023-02-01T19:11:40;101.15;;;37.58;;
60241;SDS011;46103;52.076;113.488;2023-02-01T19:14:44;94.97;;;29.48;;
60241;SDS011;46103;52.076;113.488;2023-02-01T19:17:49;146.38;;;47.58;;
60241;SDS011;46103;52.076;113.488;2023-02-01T19:21:00;203.90;;;70.50;;
60241;SDS011;46103;52.076;113.488;2023-02-01T19:24:06;188.02;;;70.85;;
60241;SDS011;46103;52.076;113.488;2023-02-01T19:27:10;182.95;;;56.10;;
60241;SDS011;46103;52.076;113.488;2023-02-01T19:30:13;194.98;;;73.88;;
60241;SDS011;46103;52.076;113.488;2023-02-01T19:33:18;199.45;;;69.65;;
60241;SDS011;46103;52.076;113.488;2023-02-01T19:36:21;194.05;;;68.30;;
60241;SDS011;46103;52.076;113.488;2023-02-01T19:39:24;203.02;;;68.28;;
60241;SDS011;46103;52.076;113.488;2023-02-01T19:42:28;132.55;;;47.47;;
60241;SDS011;46103;52.076;113.488;2023-02-01T19:45:31;165.25;;;52.00;;
60241;SDS011;46103;52.076;113.488;2023-02-01T19:48:36;173.43;;;66.22;;
60241;SDS011;46103;52.076;113.488;2023-02-01T19:51:40;153.02;;;56.47;;
60241;SDS011;46103;52.076;113.488;2023-02-01T19:54:46;142.32;;;51.95;;
60241;SDS011;46103;52.076;113.488;2023-02-01T19:57:49;184.68;;;62.17;;
60241;SDS011;46103;52.076;113.488;2023-02-01T20:00:54;112.63;;;51.80;;
60241;SDS011;46103;52.076;113.488;2023-02-01T20:03:57;156.18;;;55.97;;
60241;SDS011;46103;52.076;113.488;2023-02-01T20:10:07;94.53;;;37.83;;
60241;SDS011;46103;52.076;113.488;2023-02-01T20:13:11;118.40;;;45.78;;
60241;SDS011;46103;52.076;113.488;2023-02-01T20:16:15;123.03;;;48.70;;
60241;SDS011;46103;52.076;113.488;2023-02-01T20:19:18;151.13;;;52.38;;
60241;SDS011;46103;52.076;113.488;2023-02-01T20:22:22;142.82;;;52.47;;